createdAt,value
2022-09-04T00:00:35.957Z,2.95
2022-09-04T00:03:38.775Z,3.08
2022-09-04T00:06:13.572Z,2.80
2022-09-04T00:08:57.721Z,2.95
2022-09-04T00:11:52.828Z,2.78
2022-09-04T00:14:35.684Z,2.60
2022-09-04T00:17:34.202Z,2.75
2022-09-04T00:20:32.341Z,2.55
2022-09-04T00:23:29.606Z,2.67
2022-09-04T00:26:21.166Z,2.60
2022-09-04T00:28:56.495Z,2.80
2022-09-04T00:31:36.899Z,2.63
2022-09-04T00:34:32.439Z,2.70
2022-09-04T00:37:05.813Z,3.53
2022-09-04T00:39:43.488Z,3.30
2022-09-04T00:42:22.839Z,2.85
2022-09-04T00:45:27.761Z,3.35
2022-09-04T00:48:23.040Z,3.40
2022-09-04T00:51:25.581Z,4.03
2022-09-04T00:54:05.750Z,4.68
2022-09-04T00:57:13.973Z,4.38
2022-09-04T01:00:15.115Z,3.92
2022-09-04T01:03:10.502Z,2.85
2022-09-04T01:05:50.080Z,3.30
2022-09-04T01:08:47.283Z,2.72
2022-09-04T01:11:41.345Z,2.80
2022-09-04T01:14:28.135Z,3.05
2022-09-04T01:17:12.346Z,3.10
2022-09-04T01:20:01.635Z,3.08
2022-09-04T01:22:59.563Z,3.42
2022-09-04T01:26:00.939Z,2.75
2022-09-04T01:29:07.291Z,3.28
2022-09-04T01:32:14.176Z,3.03
2022-09-04T01:35:05.166Z,2.97
2022-09-04T01:37:47.541Z,3.20
2022-09-04T01:40:14.423Z,3.13
2022-09-04T01:43:05.474Z,3.22
2022-09-04T01:45:57.208Z,2.92
2022-09-04T01:48:37.021Z,2.80
2022-09-04T01:51:11.471Z,2.65
2022-09-04T01:53:42.519Z,2.88
2022-09-04T01:56:24.739Z,3.00
2022-09-04T01:59:06.458Z,3.03
2022-09-04T02:01:38.469Z,2.67
2022-09-04T02:04:43.553Z,2.88
2022-09-04T02:07:18.294Z,3.50
2022-09-04T02:10:06.039Z,2.70
2022-09-04T02:12:52.142Z,3.13
2022-09-04T02:15:43.956Z,2.67
2022-09-04T02:18:45.534Z,2.85
2022-09-04T02:21:33.502Z,2.70
2022-09-04T02:24:18.606Z,2.72
2022-09-04T02:27:05.832Z,2.50
2022-09-04T02:29:44.466Z,2.60
2022-09-04T02:32:38.952Z,2.70
2022-09-04T02:35:19.682Z,2.65
2022-09-04T02:38:01.222Z,2.85
2022-09-04T02:40:41.411Z,2.45
2022-09-04T02:43:49.799Z,2.90
2022-09-04T02:46:19.414Z,2.70
2022-09-04T02:49:15.141Z,3.20
2022-09-04T02:51:45.521Z,3.08
2022-09-04T02:54:33.902Z,2.83
2022-09-04T02:57:14.951Z,2.25
2022-09-04T02:59:59.028Z,3.00
2022-09-04T03:02:32.977Z,2.63
2022-09-04T03:05:18.694Z,2.88
2022-09-04T03:08:19.656Z,2.58
2022-09-04T03:10:50.244Z,2.38
2022-09-04T03:13:30.199Z,2.50
2022-09-04T03:16:12.693Z,2.83
2022-09-04T03:19:08.454Z,2.80
2022-09-04T03:22:01.771Z,2.70
2022-09-04T03:24:49.982Z,3.30
2022-09-04T03:27:19.026Z,3.10
2022-09-04T03:30:00.628Z,3.10
2022-09-04T03:32:43.499Z,2.83
2022-09-04T03:35:46.480Z,3.10
2022-09-04T03:38:34.479Z,3.10
2022-09-04T03:41:30.111Z,2.90
2022-09-04T03:44:15.763Z,3.10
2022-09-04T03:47:05.244Z,3.13
2022-09-04T03:49:51.413Z,3.17
2022-09-04T03:52:39.529Z,2.92
2022-09-04T03:55:24.760Z,2.50
2022-09-04T03:58:16.597Z,2.80
2022-09-04T04:01:13.266Z,2.80
2022-09-04T04:04:10.346Z,3.10
2022-09-04T04:06:52.886Z,3.00
2022-09-04T04:09:40.659Z,2.95
2022-09-04T04:12:19.066Z,2.80
2022-09-04T04:14:59.799Z,2.95
2022-09-04T04:18:06.182Z,2.95
2022-09-04T04:21:06.768Z,2.30
2022-09-04T04:23:47.006Z,2.67
2022-09-04T04:26:52.837Z,2.50
2022-09-04T04:29:55.028Z,2.50
2022-09-04T04:32:40.435Z,2.83
2022-09-04T04:35:41.413Z,2.80
2022-09-04T04:38:39.723Z,2.60
2022-09-04T04:41:23.332Z,2.80
2022-09-04T04:44:20.755Z,2.80
2022-09-04T04:47:07.393Z,3.00
2022-09-04T04:50:21.823Z,3.15
2022-09-04T04:52:59.697Z,3.03
2022-09-04T04:55:50.338Z,3.03
2022-09-04T04:58:30.755Z,2.95
2022-09-04T05:01:12.223Z,3.17
2022-09-04T05:04:20.159Z,3.28
2022-09-04T05:06:58.432Z,3.05
2022-09-04T05:09:43.848Z,3.20
2022-09-04T05:12:51.049Z,3.17
2022-09-04T05:15:33.451Z,2.83
2022-09-04T05:18:16.641Z,3.00
2022-09-04T05:21:04.554Z,3.10
2022-09-04T05:23:58.328Z,2.90
2022-09-04T05:26:39.183Z,3.42
2022-09-04T05:29:32.678Z,3.17
2022-09-04T05:32:31.331Z,3.10
2022-09-04T05:35:20.404Z,3.22
2022-09-04T05:38:22.094Z,2.88
2022-09-04T05:41:13.835Z,3.28
2022-09-04T05:44:08.614Z,3.15
2022-09-04T05:47:03.909Z,3.30
2022-09-04T05:50:16.345Z,3.20
2022-09-04T05:53:07.239Z,3.40
2022-09-04T05:55:45.864Z,3.30
2022-09-04T05:58:25.716Z,3.08
2022-09-04T06:01:07.093Z,2.95
2022-09-04T06:04:01.727Z,3.30
2022-09-04T06:06:58.557Z,3.40
2022-09-04T06:09:48.564Z,2.92
2022-09-04T06:12:41.706Z,2.97
2022-09-04T06:15:45.279Z,3.42
2022-09-04T06:18:43.475Z,2.90
2022-09-04T06:21:53.234Z,3.20
2022-09-04T06:24:36.149Z,3.40
2022-09-04T06:27:36.705Z,3.10
2022-09-04T06:30:05.415Z,3.13
2022-09-04T06:33:06.184Z,2.90
2022-09-04T06:35:56.568Z,3.33
2022-09-04T06:38:36.452Z,3.53
2022-09-04T06:41:14.809Z,3.33
2022-09-04T06:43:48.743Z,3.00
2022-09-04T06:46:23.936Z,3.80
2022-09-04T06:48:55.122Z,2.80
2022-09-04T06:51:32.319Z,3.20
2022-09-04T06:54:02.428Z,3.33
2022-09-04T06:57:03.893Z,3.03
2022-09-04T06:59:42.550Z,3.38
2022-09-04T07:02:37.040Z,3.50
2022-09-04T07:05:17.248Z,3.40
2022-09-04T07:07:46.857Z,2.80
2022-09-04T07:10:24.015Z,3.53
2022-09-04T07:12:59.689Z,3.78
2022-09-04T07:15:44.604Z,3.58
2022-09-04T07:18:32.678Z,3.38
2022-09-04T07:21:22.219Z,4.07
2022-09-04T07:23:53.766Z,3.85
2022-09-04T07:26:42.988Z,3.70
2022-09-04T07:29:35.402Z,3.88
2022-09-04T07:32:11.459Z,3.88
2022-09-04T07:34:42.101Z,3.83
2022-09-04T07:37:33.540Z,3.22
2022-09-04T07:40:19.786Z,3.78
2022-09-04T07:43:07.573Z,3.42
2022-09-04T07:45:38.972Z,3.78
2022-09-04T07:48:31.193Z,3.45
2022-09-04T07:51:04.760Z,3.35
2022-09-04T07:53:41.343Z,3.40
2022-09-04T07:56:26.035Z,3.40
2022-09-04T07:59:25.395Z,2.88
2022-09-04T08:02:16.214Z,3.05
2022-09-04T08:05:07.890Z,2.90
2022-09-04T08:07:34.606Z,2.75
2022-09-04T08:10:10.443Z,3.30
2022-09-04T08:12:56.286Z,3.45
2022-09-04T08:15:49.940Z,3.47
2022-09-04T08:19:01.442Z,3.67
2022-09-04T08:21:30.960Z,3.40
2022-09-04T08:24:17.522Z,3.33
2022-09-04T08:27:09.473Z,3.85
2022-09-04T08:29:45.547Z,3.60
2022-09-04T08:32:43.591Z,3.20
2022-09-04T08:35:36.555Z,3.78
2022-09-04T08:38:21.510Z,4.00
2022-09-04T08:41:11.056Z,3.95
2022-09-04T08:44:12.955Z,3.90
2022-09-04T08:46:52.976Z,3.75
2022-09-04T08:49:28.475Z,4.13
2022-09-04T08:52:21.893Z,3.88
2022-09-04T08:55:18.029Z,3.47
2022-09-04T08:58:29.332Z,3.47
2022-09-04T09:01:15.004Z,3.40
2022-09-04T09:04:19.168Z,3.40
2022-09-04T09:07:01.897Z,3.30
2022-09-04T09:10:00.488Z,3.10
2022-09-04T09:13:01.468Z,3.25
2022-09-04T09:15:49.256Z,3.30
2022-09-04T09:18:41.492Z,2.80
2022-09-04T09:21:15.339Z,2.67
2022-09-04T09:24:06.709Z,2.95
2022-09-04T09:26:52.587Z,3.03
2022-09-04T09:30:06.315Z,2.70
2022-09-04T09:32:54.171Z,2.80
2022-09-04T09:35:58.525Z,3.13
2022-09-04T09:38:49.767Z,2.42
2022-09-04T09:41:25.382Z,2.28
2022-09-04T09:44:10.140Z,2.00
2022-09-04T09:47:01.683Z,2.00
2022-09-04T09:50:25.750Z,2.15
2022-09-04T09:53:28.954Z,1.52
2022-09-04T09:55:58.597Z,1.60
2022-09-04T09:59:16.830Z,1.55
2022-09-04T10:02:03.712Z,1.70
2022-09-04T10:05:08.108Z,2.10
2022-09-04T10:07:37.017Z,1.80
2022-09-04T10:10:43.593Z,1.55
2022-09-04T10:13:30.041Z,1.55
2022-09-04T10:16:12.602Z,1.63
2022-09-04T10:18:45.052Z,1.60
2022-09-04T10:21:46.346Z,1.02
2022-09-04T10:24:36.671Z,1.65
2022-09-04T10:27:22.530Z,1.10
2022-09-04T10:29:52.082Z,1.48
2022-09-04T10:32:48.395Z,1.30
2022-09-04T10:35:33.755Z,1.27
2022-09-04T10:38:59.317Z,1.15
2022-09-04T10:41:36.924Z,1.15
2022-09-04T10:44:25.791Z,1.20
2022-09-04T10:47:02.970Z,1.30
2022-09-04T10:49:59.105Z,1.23
2022-09-04T10:53:07.142Z,1.13
2022-09-04T10:55:57.264Z,1.00
2022-09-04T10:58:39.654Z,1.13
2022-09-04T11:01:18.636Z,1.25
2022-09-04T11:04:11.535Z,1.08
2022-09-04T11:07:15.324Z,1.35
2022-09-04T11:09:56.743Z,1.20
2022-09-04T11:12:49.516Z,1.20
2022-09-04T11:15:45.171Z,0.95
2022-09-04T11:18:36.764Z,1.38
2022-09-04T11:21:37.537Z,1.20
2022-09-04T11:25:00.007Z,1.00
2022-09-04T11:28:06.266Z,1.20
2022-09-04T11:31:00.336Z,1.00
2022-09-04T11:33:48.672Z,1.48
2022-09-04T11:36:44.046Z,0.93
2022-09-04T11:39:26.040Z,1.23
2022-09-04T11:42:08.475Z,1.23
2022-09-04T11:45:00.488Z,1.02
2022-09-04T11:47:36.739Z,1.58
2022-09-04T11:50:27.866Z,1.30
2022-09-04T11:53:13.114Z,1.15
2022-09-04T11:56:05.790Z,1.38
2022-09-04T11:58:47.747Z,1.33
2022-09-04T12:01:32.550Z,1.20
2022-09-04T12:04:34.363Z,1.20
2022-09-04T12:07:18.916Z,1.30
2022-09-04T12:10:05.348Z,1.15
2022-09-04T12:13:14.868Z,1.30
2022-09-04T12:15:55.735Z,1.20
2022-09-04T12:18:44.679Z,1.40
2022-09-04T12:21:40.682Z,1.35
2022-09-04T12:24:34.688Z,1.20
2022-09-04T12:27:32.776Z,1.60
2022-09-04T12:30:23.707Z,1.58
2022-09-04T12:33:29.239Z,1.27
2022-09-04T12:36:29.897Z,1.13
2022-09-04T12:39:48.108Z,1.42
2022-09-04T12:42:20.592Z,1.73
2022-09-04T12:45:08.764Z,1.27
2022-09-04T12:47:55.491Z,1.00
2022-09-04T12:50:52.755Z,1.35
2022-09-04T12:53:49.274Z,1.15
2022-09-04T12:56:29.901Z,1.15
2022-09-04T12:59:16.252Z,1.70
2022-09-04T13:01:54.254Z,1.20
2022-09-04T13:04:44.988Z,1.05
2022-09-04T13:07:29.473Z,1.33
2022-09-04T13:10:16.659Z,1.20
2022-09-04T13:13:01.389Z,1.50
2022-09-04T13:15:33.870Z,1.00
2022-09-04T13:18:15.476Z,1.30
2022-09-04T13:20:59.718Z,1.10
2022-09-04T13:23:46.454Z,1.00
2022-09-04T13:26:48.335Z,1.33
2022-09-04T13:29:29.850Z,1.10
2022-09-04T13:32:16.552Z,1.13
2022-09-04T13:35:04.182Z,1.00
2022-09-04T13:38:02.752Z,1.20
2022-09-04T13:41:00.195Z,1.23
2022-09-04T13:43:55.967Z,0.98
2022-09-04T13:46:31.155Z,1.55
2022-09-04T13:49:08.470Z,1.02
2022-09-04T13:51:44.930Z,1.20
2022-09-04T13:54:26.892Z,1.70
2022-09-04T13:57:02.116Z,1.38
2022-09-04T13:59:29.385Z,1.00
2022-09-04T14:02:02.024Z,1.40
2022-09-04T14:04:34.350Z,1.23
2022-09-04T14:07:08.871Z,1.08
2022-09-04T14:09:44.345Z,1.58
2022-09-04T14:12:15.484Z,1.15
2022-09-04T14:15:11.390Z,1.30
2022-09-04T14:17:46.096Z,1.25
2022-09-04T14:20:29.008Z,1.20
2022-09-04T14:23:01.834Z,1.00
2022-09-04T14:25:51.185Z,1.17
2022-09-04T14:28:28.211Z,1.30
2022-09-04T14:31:24.267Z,1.20
2022-09-04T14:34:26.550Z,1.15
2022-09-04T14:37:05.036Z,1.23
2022-09-04T14:39:46.053Z,1.23
2022-09-04T14:42:52.064Z,1.10
2022-09-04T14:45:33.333Z,1.30
2022-09-04T14:48:05.333Z,1.33
2022-09-04T14:50:48.945Z,1.20
2022-09-04T14:53:26.600Z,1.40
2022-09-04T14:56:11.195Z,1.30
2022-09-04T14:58:45.924Z,1.10
2022-09-04T15:01:21.193Z,1.33
2022-09-04T15:04:18.811Z,1.00
2022-09-04T15:07:12.346Z,1.08
2022-09-04T15:09:46.793Z,1.40
2022-09-04T15:12:25.347Z,1.15
2022-09-04T15:15:16.079Z,1.23
2022-09-04T15:17:54.248Z,1.30
2022-09-04T15:20:24.965Z,1.20
2022-09-04T15:22:56.150Z,1.20
2022-09-04T15:25:54.648Z,1.27
2022-09-04T15:28:38.774Z,1.65
2022-09-04T15:31:15.973Z,1.40
2022-09-04T15:33:45.663Z,1.25
2022-09-04T15:36:18.582Z,1.40
2022-09-04T15:38:55.899Z,1.02
2022-09-04T15:41:50.138Z,1.45
2022-09-04T15:44:31.873Z,1.17
2022-09-04T15:47:17.036Z,1.38
2022-09-04T15:49:54.136Z,1.42
2022-09-04T15:52:24.338Z,1.20
2022-09-04T15:55:05.673Z,1.45
2022-09-04T15:57:42.905Z,1.30
2022-09-04T16:00:14.247Z,1.10
2022-09-04T16:03:15.671Z,1.17
2022-09-04T16:05:49.137Z,1.70
2022-09-04T16:08:47.506Z,1.52
2022-09-04T16:11:37.903Z,1.17
2022-09-04T16:14:16.691Z,1.27
2022-09-04T16:16:53.110Z,1.38
2022-09-04T16:19:33.552Z,1.33
2022-09-04T16:22:25.854Z,1.20
2022-09-04T16:25:08.823Z,1.48
2022-09-04T16:27:53.555Z,1.30
2022-09-04T16:30:31.085Z,1.35
2022-09-04T16:32:59.199Z,1.48
2022-09-04T16:35:30.755Z,1.30
2022-09-04T16:38:05.705Z,1.33
2022-09-04T16:40:40.778Z,1.45
2022-09-04T16:43:27.347Z,1.30
2022-09-04T16:46:14.147Z,1.33
2022-09-04T16:48:52.252Z,1.50
2022-09-04T16:51:40.995Z,1.30
2022-09-04T16:54:20.776Z,1.20
2022-09-04T16:57:12.560Z,1.20
2022-09-04T16:59:48.907Z,1.75
2022-09-04T17:02:35.662Z,1.30
2022-09-04T17:05:10.431Z,1.55
2022-09-04T17:07:43.121Z,1.40
2022-09-04T17:10:14.868Z,1.50
2022-09-04T17:12:57.885Z,1.10
2022-09-04T17:15:37.075Z,1.52
2022-09-04T17:18:09.578Z,2.58
2022-09-04T17:25:57.328Z,2.10
2022-09-04T17:28:56.267Z,1.50
2022-09-04T17:29:11.934Z,1.30
2022-09-04T17:30:44.410Z,1.33
2022-09-04T17:40:38.112Z,1.52
2022-09-04T17:40:50.301Z,1.10
2022-09-04T17:40:51.299Z,1.50
2022-09-04T17:43:21.423Z,1.60
2022-09-04T17:46:06.731Z,1.42
2022-09-04T17:48:40.996Z,1.52
2022-09-04T17:51:14.450Z,1.60
2022-09-04T17:53:49.175Z,1.35
2022-09-04T17:56:57.434Z,1.60
2022-09-04T17:59:28.249Z,1.20
2022-09-04T18:02:10.207Z,1.15
2022-09-04T18:05:04.362Z,1.40
2022-09-04T18:08:09.086Z,1.73
2022-09-04T18:10:46.191Z,1.70
2022-09-04T18:13:38.048Z,1.50
2022-09-04T18:16:14.611Z,2.00
2022-09-04T18:18:52.965Z,2.20
2022-09-04T18:21:24.006Z,2.00
2022-09-04T18:24:32.818Z,1.60
2022-09-04T18:27:15.046Z,1.50
2022-09-04T18:34:55.531Z,1.40
2022-09-04T18:37:12.631Z,1.40
2022-09-04T18:37:17.025Z,1.70
2022-09-04T18:39:11.300Z,1.50
2022-09-04T18:50:22.401Z,1.35
2022-09-04T18:50:29.724Z,1.65
2022-09-04T18:50:35.751Z,1.38
2022-09-04T18:51:18.672Z,1.30
2022-09-04T18:53:53.619Z,1.63
2022-09-04T18:56:24.232Z,1.35
2022-09-04T18:59:03.739Z,1.60
2022-09-04T19:01:45.323Z,1.38
2022-09-04T19:04:36.559Z,1.30
2022-09-04T19:07:07.279Z,1.45
2022-09-04T19:09:52.572Z,1.73
2022-09-04T19:12:36.947Z,1.63
2022-09-04T19:15:37.344Z,1.40
2022-09-04T19:18:47.275Z,1.80
2022-09-04T19:21:25.906Z,1.90
2022-09-04T19:24:00.869Z,1.67
2022-09-04T19:26:42.377Z,1.67
2022-09-04T19:29:22.814Z,1.63
2022-09-04T19:31:56.546Z,1.73
2022-09-04T19:34:35.400Z,1.80
2022-09-04T19:38:09.612Z,1.40
2022-09-04T19:46:03.509Z,1.55
2022-09-04T19:46:15.861Z,1.55
2022-09-04T19:46:27.674Z,1.42
2022-09-04T19:50:34.097Z,2.00
2022-09-04T19:53:33.927Z,2.05
2022-09-04T19:55:24.015Z,1.75
2022-09-04T19:58:17.972Z,1.83
2022-09-04T20:00:58.048Z,1.65
2022-09-04T20:03:29.578Z,1.58
2022-09-04T20:06:24.269Z,1.80
2022-09-04T20:09:20.799Z,1.65
2022-09-04T20:11:53.853Z,1.55
2022-09-04T20:14:34.622Z,1.67
2022-09-04T20:17:21.608Z,1.73
2022-09-04T20:19:54.084Z,1.77
2022-09-04T20:22:58.483Z,1.80
2022-09-04T20:25:47.974Z,1.88
2022-09-04T20:28:23.455Z,1.70
2022-09-04T20:31:40.045Z,1.60
2022-09-04T20:34:39.949Z,1.80
2022-09-04T20:37:28.701Z,2.08
2022-09-04T20:40:19.838Z,3.20
2022-09-04T20:43:03.933Z,1.90
2022-09-04T20:49:16.636Z,2.50
2022-09-04T20:52:56.249Z,2.10
2022-09-04T20:53:04.553Z,1.83
2022-09-04T20:54:32.702Z,1.83
2022-09-04T21:03:12.415Z,2.08
2022-09-04T21:03:21.875Z,1.90
2022-09-04T21:03:37.974Z,1.88
2022-09-04T21:06:29.913Z,2.28
2022-09-04T21:09:22.775Z,2.10
2022-09-04T21:11:59.297Z,1.85
2022-09-04T21:14:44.773Z,2.38
2022-09-04T21:17:33.633Z,1.80
2022-09-04T21:20:36.443Z,2.30
2022-09-04T21:24:03.883Z,2.50
2022-09-04T21:26:46.226Z,2.00
2022-09-04T21:29:34.222Z,1.90
2022-09-04T21:32:11.402Z,2.17
2022-09-04T21:34:56.684Z,2.30
2022-09-04T21:38:02.436Z,2.63
2022-09-04T21:41:00.162Z,2.10
2022-09-04T21:43:47.792Z,1.80
2022-09-04T21:46:17.389Z,2.15
2022-09-04T21:48:53.888Z,1.85
2022-09-04T21:52:04.570Z,2.08
2022-09-04T21:57:28.748Z,2.47
2022-09-04T22:02:31.969Z,2.22
2022-09-04T22:02:40.983Z,2.42
2022-09-04T22:04:17.108Z,2.45
2022-09-04T22:12:09.082Z,2.05
2022-09-04T22:13:30.723Z,2.20
2022-09-04T22:13:49.091Z,2.40
2022-09-04T22:16:29.286Z,2.85
2022-09-04T22:19:32.997Z,2.70
2022-09-04T22:22:18.293Z,2.40
2022-09-04T22:25:33.622Z,2.70
2022-09-04T22:28:19.114Z,2.30
2022-09-04T22:30:51.711Z,2.80
2022-09-04T22:34:15.706Z,2.63
2022-09-04T22:37:12.484Z,2.63
2022-09-04T22:40:23.566Z,2.67
2022-09-04T22:43:02.047Z,2.45
2022-09-04T22:46:13.547Z,2.42
2022-09-04T22:49:12.230Z,2.67
2022-09-04T22:52:11.005Z,2.75
2022-09-04T22:54:43.460Z,2.47
2022-09-04T22:57:12.496Z,2.63
2022-09-04T23:00:05.982Z,2.78
2022-09-04T23:06:18.917Z,2.58
2022-09-04T23:13:47.121Z,2.92
2022-09-04T23:13:47.124Z,2.92
2022-09-04T23:15:08.427Z,2.65
2022-09-04T23:17:35.598Z,2.75
2022-09-04T23:25:44.199Z,2.70
2022-09-04T23:26:50.722Z,2.30
2022-09-04T23:27:00.001Z,2.35
2022-09-04T23:30:11.778Z,2.17
2022-09-04T23:32:41.458Z,2.70
2022-09-04T23:35:22.411Z,3.10
2022-09-04T23:38:06.696Z,2.90
2022-09-04T23:40:59.227Z,2.50
2022-09-04T23:43:42.207Z,2.65
2022-09-04T23:46:45.898Z,2.42
2022-09-04T23:49:22.232Z,2.25
2022-09-04T23:52:09.210Z,2.85
2022-09-04T23:54:53.955Z,2.60
2022-09-04T23:57:59.043Z,2.22
